sensor_id;sensor_type;location;lat;lon;timestamp;P1;durP1;ratioP1;P2;durP2;ratioP2
43150;SDS011;28755;51.478;5.702;2022-09-16T00:02:18;9.13;;;2.10;;
43150;SDS011;28755;51.478;5.702;2022-09-16T00:04:44;6.07;;;1.85;;
43150;SDS011;28755;51.478;5.702;2022-09-16T00:07:10;6.93;;;1.80;;
43150;SDS011;28755;51.478;5.702;2022-09-16T00:09:36;7.25;;;1.92;;
43150;SDS011;28755;51.478;5.702;2022-09-16T00:12:02;6.60;;;1.90;;
43150;SDS011;28755;51.478;5.702;2022-09-16T00:14:29;8.23;;;2.00;;
43150;SDS011;28755;51.478;5.702;2022-09-16T00:16:54;8.73;;;2.60;;
43150;SDS011;28755;51.478;5.702;2022-09-16T00:19:20;9.02;;;1.98;;
43150;SDS011;28755;51.478;5.702;2022-09-16T00:21:46;10.98;;;2.17;;
43150;SDS011;28755;51.478;5.702;2022-09-16T00:24:13;11.52;;;2.30;;
43150;SDS011;28755;51.478;5.702;2022-09-16T00:26:40;7.70;;;2.35;;
43150;SDS011;28755;51.478;5.702;2022-09-16T00:29:06;10.48;;;2.20;;
43150;SDS011;28755;51.478;5.702;2022-09-16T00:31:32;6.10;;;1.70;;
43150;SDS011;28755;51.478;5.702;2022-09-16T00:33:58;9.02;;;2.10;;
43150;SDS011;28755;51.478;5.702;2022-09-16T00:36:23;8.13;;;1.83;;
43150;SDS011;28755;51.478;5.702;2022-09-16T00:38:52;6.85;;;1.67;;
43150;SDS011;28755;51.478;5.702;2022-09-16T00:41:23;9.37;;;1.97;;
43150;SDS011;28755;51.478;5.702;2022-09-16T00:43:56;5.90;;;1.90;;
43150;SDS011;28755;51.478;5.702;2022-09-16T00:49:12;8.63;;;2.08;;
43150;SDS011;28755;51.478;5.702;2022-09-16T00:51:42;12.10;;;2.33;;
43150;SDS011;28755;51.478;5.702;2022-09-16T00:54:12;10.00;;;2.33;;
43150;SDS011;28755;51.478;5.702;2022-09-16T00:56:39;10.90;;;2.42;;
43150;SDS011;28755;51.478;5.702;2022-09-16T01:01:36;12.27;;;2.20;;
43150;SDS011;28755;51.478;5.702;2022-09-16T01:04:05;8.07;;;2.05;;
43150;SDS011;28755;51.478;5.702;2022-09-16T01:06:34;8.45;;;2.13;;
43150;SDS011;28755;51.478;5.702;2022-09-16T01:09:03;14.13;;;2.70;;
43150;SDS011;28755;51.478;5.702;2022-09-16T01:11:29;14.57;;;2.00;;
43150;SDS011;28755;51.478;5.702;2022-09-16T01:13:55;5.72;;;1.88;;
43150;SDS011;28755;51.478;5.702;2022-09-16T01:16:41;8.02;;;1.70;;
43150;SDS011;28755;51.478;5.702;2022-09-16T01:22:01;7.60;;;1.95;;
43150;SDS011;28755;51.478;5.702;2022-09-16T01:27:28;9.65;;;1.77;;
43150;SDS011;28755;51.478;5.702;2022-09-16T01:33:05;10.50;;;2.20;;
43150;SDS011;28755;51.478;5.702;2022-09-16T01:36:02;13.07;;;2.00;;
43150;SDS011;28755;51.478;5.702;2022-09-16T01:39:00;7.55;;;1.77;;
43150;SDS011;28755;51.478;5.702;2022-09-16T01:41:41;8.55;;;2.60;;
43150;SDS011;28755;51.478;5.702;2022-09-16T01:47:25;13.73;;;3.80;;
43150;SDS011;28755;51.478;5.702;2022-09-16T01:52:55;7.85;;;3.97;;
43150;SDS011;28755;51.478;5.702;2022-09-16T01:58:10;9.23;;;4.45;;
43150;SDS011;28755;51.478;5.702;2022-09-16T02:00:45;10.77;;;4.35;;
43150;SDS011;28755;51.478;5.702;2022-09-16T02:03:17;13.25;;;4.55;;
43150;SDS011;28755;51.478;5.702;2022-09-16T02:05:53;10.15;;;4.28;;
43150;SDS011;28755;51.478;5.702;2022-09-16T02:08:33;11.52;;;3.90;;
43150;SDS011;28755;51.478;5.702;2022-09-16T02:11:05;11.75;;;3.78;;
43150;SDS011;28755;51.478;5.702;2022-09-16T02:13:47;10.30;;;4.20;;
43150;SDS011;28755;51.478;5.702;2022-09-16T02:19:08;16.02;;;4.90;;
43150;SDS011;28755;51.478;5.702;2022-09-16T02:21:39;12.90;;;4.70;;
43150;SDS011;28755;51.478;5.702;2022-09-16T02:24:08;10.20;;;3.95;;
43150;SDS011;28755;51.478;5.702;2022-09-16T02:26:40;11.00;;;4.15;;
43150;SDS011;28755;51.478;5.702;2022-09-16T02:29:12;12.30;;;4.30;;
43150;SDS011;28755;51.478;5.702;2022-09-16T02:31:42;9.48;;;3.10;;
43150;SDS011;28755;51.478;5.702;2022-09-16T02:34:13;11.70;;;3.88;;
43150;SDS011;28755;51.478;5.702;2022-09-16T02:36:43;14.40;;;3.85;;
43150;SDS011;28755;51.478;5.702;2022-09-16T02:39:13;12.90;;;3.55;;
43150;SDS011;28755;51.478;5.702;2022-09-16T02:41:43;9.75;;;3.20;;
43150;SDS011;28755;51.478;5.702;2022-09-16T02:44:09;12.95;;;3.50;;
43150;SDS011;28755;51.478;5.702;2022-09-16T02:46:51;9.40;;;3.63;;
43150;SDS011;28755;51.478;5.702;2022-09-16T02:49:44;10.38;;;3.70;;
43150;SDS011;28755;51.478;5.702;2022-09-16T02:54:56;13.68;;;3.72;;
43150;SDS011;28755;51.478;5.702;2022-09-16T02:57:29;11.02;;;3.85;;
43150;SDS011;28755;51.478;5.702;2022-09-16T02:59:54;14.77;;;3.00;;
43150;SDS011;28755;51.478;5.702;2022-09-16T03:02:20;13.18;;;3.10;;
43150;SDS011;28755;51.478;5.702;2022-09-16T03:04:47;6.05;;;2.75;;
43150;SDS011;28755;51.478;5.702;2022-09-16T03:07:13;12.10;;;2.95;;
43150;SDS011;28755;51.478;5.702;2022-09-16T03:09:41;7.80;;;2.63;;
43150;SDS011;28755;51.478;5.702;2022-09-16T03:28:17;9.00;;;3.00;;
43150;SDS011;28755;51.478;5.702;2022-09-16T03:30:53;8.55;;;2.42;;
43150;SDS011;28755;51.478;5.702;2022-09-16T03:33:42;10.82;;;2.33;;
43150;SDS011;28755;51.478;5.702;2022-09-16T03:36:14;16.20;;;2.70;;
43150;SDS011;28755;51.478;5.702;2022-09-16T03:38:47;15.45;;;2.42;;
43150;SDS011;28755;51.478;5.702;2022-09-16T03:41:14;11.75;;;2.30;;
43150;SDS011;28755;51.478;5.702;2022-09-16T03:43:51;10.30;;;2.40;;
43150;SDS011;28755;51.478;5.702;2022-09-16T03:46:17;10.88;;;2.03;;
43150;SDS011;28755;51.478;5.702;2022-09-16T03:48:43;16.73;;;2.50;;
43150;SDS011;28755;51.478;5.702;2022-09-16T03:51:08;11.55;;;2.35;;
43150;SDS011;28755;51.478;5.702;2022-09-16T03:53:34;10.40;;;2.20;;
43150;SDS011;28755;51.478;5.702;2022-09-16T03:55:59;8.00;;;1.90;;
43150;SDS011;28755;51.478;5.702;2022-09-16T03:58:25;11.52;;;2.08;;
43150;SDS011;28755;51.478;5.702;2022-09-16T04:00:50;9.13;;;2.33;;
43150;SDS011;28755;51.478;5.702;2022-09-16T04:03:16;8.93;;;1.88;;
43150;SDS011;28755;51.478;5.702;2022-09-16T04:05:42;9.48;;;2.50;;
43150;SDS011;28755;51.478;5.702;2022-09-16T04:08:07;10.60;;;2.47;;
43150;SDS011;28755;51.478;5.702;2022-09-16T04:10:33;11.38;;;1.88;;
43150;SDS011;28755;51.478;5.702;2022-09-16T04:12:58;9.45;;;1.92;;
43150;SDS011;28755;51.478;5.702;2022-09-16T04:15:24;9.23;;;2.00;;
43150;SDS011;28755;51.478;5.702;2022-09-16T04:17:50;9.38;;;2.38;;
43150;SDS011;28755;51.478;5.702;2022-09-16T04:20:15;5.72;;;1.55;;
43150;SDS011;28755;51.478;5.702;2022-09-16T04:22:41;10.75;;;1.90;;
43150;SDS011;28755;51.478;5.702;2022-09-16T04:25:07;5.65;;;1.92;;
43150;SDS011;28755;51.478;5.702;2022-09-16T04:27:33;9.50;;;2.03;;
43150;SDS011;28755;51.478;5.702;2022-09-16T04:29:59;6.18;;;1.92;;
43150;SDS011;28755;51.478;5.702;2022-09-16T04:32:25;4.18;;;1.92;;
43150;SDS011;28755;51.478;5.702;2022-09-16T04:34:50;8.63;;;2.10;;
43150;SDS011;28755;51.478;5.702;2022-09-16T04:37:16;7.35;;;1.98;;
43150;SDS011;28755;51.478;5.702;2022-09-16T04:39:41;8.48;;;2.47;;
43150;SDS011;28755;51.478;5.702;2022-09-16T04:42:07;7.72;;;1.90;;
43150;SDS011;28755;51.478;5.702;2022-09-16T04:44:36;7.53;;;2.10;;
43150;SDS011;28755;51.478;5.702;2022-09-16T04:47:02;8.98;;;2.28;;
43150;SDS011;28755;51.478;5.702;2022-09-16T04:49:28;6.90;;;1.85;;
43150;SDS011;28755;51.478;5.702;2022-09-16T04:51:53;8.65;;;2.05;;
43150;SDS011;28755;51.478;5.702;2022-09-16T04:54:19;9.95;;;2.53;;
43150;SDS011;28755;51.478;5.702;2022-09-16T04:56:45;7.60;;;1.80;;
43150;SDS011;28755;51.478;5.702;2022-09-16T04:59:10;9.88;;;1.70;;
43150;SDS011;28755;51.478;5.702;2022-09-16T05:01:37;6.80;;;1.80;;
43150;SDS011;28755;51.478;5.702;2022-09-16T05:04:04;14.45;;;2.72;;
43150;SDS011;28755;51.478;5.702;2022-09-16T05:06:31;10.00;;;2.13;;
43150;SDS011;28755;51.478;5.702;2022-09-16T05:08:59;7.40;;;1.70;;
43150;SDS011;28755;51.478;5.702;2022-09-16T05:11:26;13.57;;;2.05;;
43150;SDS011;28755;51.478;5.702;2022-09-16T05:13:53;6.78;;;1.98;;
43150;SDS011;28755;51.478;5.702;2022-09-16T05:16:22;8.07;;;1.75;;
43150;SDS011;28755;51.478;5.702;2022-09-16T05:18:49;8.93;;;2.22;;
43150;SDS011;28755;51.478;5.702;2022-09-16T05:21:18;7.82;;;2.17;;
43150;SDS011;28755;51.478;5.702;2022-09-16T05:23:45;7.68;;;1.90;;
43150;SDS011;28755;51.478;5.702;2022-09-16T05:26:12;9.32;;;2.00;;
43150;SDS011;28755;51.478;5.702;2022-09-16T05:28:40;6.03;;;1.50;;
43150;SDS011;28755;51.478;5.702;2022-09-16T05:31:06;8.50;;;2.00;;
43150;SDS011;28755;51.478;5.702;2022-09-16T05:33:35;9.17;;;2.27;;
43150;SDS011;28755;51.478;5.702;2022-09-16T05:36:05;8.73;;;1.90;;
43150;SDS011;28755;51.478;5.702;2022-09-16T05:38:32;9.02;;;1.60;;
43150;SDS011;28755;51.478;5.702;2022-09-16T05:40:58;12.32;;;2.35;;
43150;SDS011;28755;51.478;5.702;2022-09-16T05:43:24;5.05;;;2.00;;
43150;SDS011;28755;51.478;5.702;2022-09-16T05:45:50;6.55;;;1.80;;
43150;SDS011;28755;51.478;5.702;2022-09-16T05:48:16;8.73;;;1.98;;
43150;SDS011;28755;51.478;5.702;2022-09-16T05:50:49;9.05;;;1.88;;
43150;SDS011;28755;51.478;5.702;2022-09-16T05:53:23;7.22;;;1.98;;
43150;SDS011;28755;51.478;5.702;2022-09-16T05:56:32;8.32;;;1.80;;
43150;SDS011;28755;51.478;5.702;2022-09-16T05:58:40;6.72;;;1.42;;
43150;SDS011;28755;51.478;5.702;2022-09-16T06:01:07;5.63;;;2.03;;
43150;SDS011;28755;51.478;5.702;2022-09-16T06:03:36;5.43;;;1.50;;
43150;SDS011;28755;51.478;5.702;2022-09-16T06:06:04;4.53;;;1.13;;
43150;SDS011;28755;51.478;5.702;2022-09-16T06:08:44;7.38;;;1.67;;
43150;SDS011;28755;51.478;5.702;2022-09-16T06:11:10;4.97;;;1.52;;
43150;SDS011;28755;51.478;5.702;2022-09-16T06:13:37;5.53;;;1.27;;
43150;SDS011;28755;51.478;5.702;2022-09-16T06:16:06;6.25;;;1.48;;
43150;SDS011;28755;51.478;5.702;2022-09-16T06:18:32;6.40;;;2.00;;
43150;SDS011;28755;51.478;5.702;2022-09-16T06:21:01;4.25;;;1.10;;
43150;SDS011;28755;51.478;5.702;2022-09-16T06:23:35;5.18;;;1.23;;
43150;SDS011;28755;51.478;5.702;2022-09-16T06:26:02;7.13;;;1.83;;
43150;SDS011;28755;51.478;5.702;2022-09-16T06:28:30;6.68;;;1.25;;
43150;SDS011;28755;51.478;5.702;2022-09-16T06:31:00;3.65;;;1.38;;
43150;SDS011;28755;51.478;5.702;2022-09-16T06:33:28;6.75;;;1.90;;
43150;SDS011;28755;51.478;5.702;2022-09-16T06:35:53;4.32;;;1.33;;
43150;SDS011;28755;51.478;5.702;2022-09-16T06:38:20;4.60;;;1.17;;
43150;SDS011;28755;51.478;5.702;2022-09-16T06:40:46;8.13;;;1.50;;
43150;SDS011;28755;51.478;5.702;2022-09-16T06:43:13;6.68;;;1.50;;
43150;SDS011;28755;51.478;5.702;2022-09-16T06:45:38;6.68;;;1.60;;
43150;SDS011;28755;51.478;5.702;2022-09-16T06:48:04;5.18;;;1.27;;
43150;SDS011;28755;51.478;5.702;2022-09-16T06:50:29;3.85;;;1.20;;
43150;SDS011;28755;51.478;5.702;2022-09-16T06:52:55;3.50;;;1.13;;
43150;SDS011;28755;51.478;5.702;2022-09-16T06:55:21;5.30;;;1.48;;
43150;SDS011;28755;51.478;5.702;2022-09-16T06:57:46;3.85;;;1.13;;
43150;SDS011;28755;51.478;5.702;2022-09-16T07:00:12;7.07;;;1.60;;
43150;SDS011;28755;51.478;5.702;2022-09-16T07:02:38;7.10;;;1.02;;
43150;SDS011;28755;51.478;5.702;2022-09-16T07:05:04;5.82;;;1.20;;
43150;SDS011;28755;51.478;5.702;2022-09-16T07:07:29;5.60;;;1.60;;
43150;SDS011;28755;51.478;5.702;2022-09-16T07:09:56;5.20;;;1.20;;
43150;SDS011;28755;51.478;5.702;2022-09-16T07:12:22;7.03;;;1.38;;
43150;SDS011;28755;51.478;5.702;2022-09-16T07:14:48;4.47;;;1.08;;
43150;SDS011;28755;51.478;5.702;2022-09-16T07:17:13;5.80;;;1.17;;
43150;SDS011;28755;51.478;5.702;2022-09-16T07:19:39;5.80;;;1.30;;
43150;SDS011;28755;51.478;5.702;2022-09-16T07:22:06;4.88;;;1.20;;
43150;SDS011;28755;51.478;5.702;2022-09-16T07:24:32;7.20;;;1.20;;
43150;SDS011;28755;51.478;5.702;2022-09-16T07:26:57;6.63;;;1.23;;
43150;SDS011;28755;51.478;5.702;2022-09-16T07:29:23;1.80;;;0.57;;
43150;SDS011;28755;51.478;5.702;2022-09-16T07:31:50;2.47;;;0.70;;
43150;SDS011;28755;51.478;5.702;2022-09-16T07:34:15;7.32;;;1.15;;
43150;SDS011;28755;51.478;5.702;2022-09-16T07:36:43;6.38;;;0.93;;
43150;SDS011;28755;51.478;5.702;2022-09-16T07:39:11;3.20;;;0.70;;
43150;SDS011;28755;51.478;5.702;2022-09-16T07:41:38;3.47;;;0.70;;
43150;SDS011;28755;51.478;5.702;2022-09-16T07:44:05;6.53;;;0.75;;
43150;SDS011;28755;51.478;5.702;2022-09-16T07:46:32;5.90;;;1.00;;
43150;SDS011;28755;51.478;5.702;2022-09-16T07:49:00;5.35;;;0.88;;
43150;SDS011;28755;51.478;5.702;2022-09-16T07:51:27;3.92;;;0.85;;
43150;SDS011;28755;51.478;5.702;2022-09-16T07:53:54;6.18;;;0.98;;
43150;SDS011;28755;51.478;5.702;2022-09-16T07:56:23;4.75;;;0.82;;
43150;SDS011;28755;51.478;5.702;2022-09-16T07:58:51;4.55;;;0.70;;
43150;SDS011;28755;51.478;5.702;2022-09-16T08:01:18;4.47;;;1.02;;
43150;SDS011;28755;51.478;5.702;2022-09-16T08:03:44;5.60;;;0.85;;
43150;SDS011;28755;51.478;5.702;2022-09-16T08:06:17;3.92;;;0.98;;
43150;SDS011;28755;51.478;5.702;2022-09-16T08:08:45;4.97;;;1.25;;
43150;SDS011;28755;51.478;5.702;2022-09-16T08:11:12;6.45;;;0.93;;
43150;SDS011;28755;51.478;5.702;2022-09-16T08:13:38;3.00;;;0.95;;
43150;SDS011;28755;51.478;5.702;2022-09-16T08:16:06;5.93;;;1.00;;
43150;SDS011;28755;51.478;5.702;2022-09-16T08:18:34;3.80;;;0.80;;
43150;SDS011;28755;51.478;5.702;2022-09-16T08:21:04;4.72;;;1.00;;
43150;SDS011;28755;51.478;5.702;2022-09-16T08:23:35;2.58;;;0.80;;
43150;SDS011;28755;51.478;5.702;2022-09-16T08:26:02;4.97;;;1.00;;
43150;SDS011;28755;51.478;5.702;2022-09-16T08:28:28;3.63;;;0.93;;
43150;SDS011;28755;51.478;5.702;2022-09-16T08:30:57;5.82;;;0.90;;
43150;SDS011;28755;51.478;5.702;2022-09-16T08:33:24;6.18;;;0.95;;
43150;SDS011;28755;51.478;5.702;2022-09-16T08:35:59;5.38;;;1.48;;
43150;SDS011;28755;51.478;5.702;2022-09-16T08:38:26;6.45;;;1.10;;
43150;SDS011;28755;51.478;5.702;2022-09-16T08:40:53;5.57;;;1.27;;
43150;SDS011;28755;51.478;5.702;2022-09-16T08:43:42;4.27;;;0.70;;
43150;SDS011;28755;51.478;5.702;2022-09-16T08:46:16;3.10;;;0.90;;
43150;SDS011;28755;51.478;5.702;2022-09-16T08:48:59;6.22;;;1.00;;
43150;SDS011;28755;51.478;5.702;2022-09-16T08:51:28;2.58;;;0.80;;
43150;SDS011;28755;51.478;5.702;2022-09-16T08:53:58;4.97;;;1.10;;
43150;SDS011;28755;51.478;5.702;2022-09-16T08:56:29;2.38;;;0.70;;
43150;SDS011;28755;51.478;5.702;2022-09-16T08:59:00;1.88;;;0.85;;
43150;SDS011;28755;51.478;5.702;2022-09-16T09:04:09;3.55;;;0.93;;
43150;SDS011;28755;51.478;5.702;2022-09-16T09:22:21;4.15;;;0.98;;
43150;SDS011;28755;51.478;5.702;2022-09-16T09:30:56;7.10;;;1.50;;
43150;SDS011;28755;51.478;5.702;2022-09-16T09:33:29;4.13;;;0.90;;
43150;SDS011;28755;51.478;5.702;2022-09-16T09:36:14;4.47;;;0.90;;
43150;SDS011;28755;51.478;5.702;2022-09-16T09:39:01;5.97;;;1.10;;
43150;SDS011;28755;51.478;5.702;2022-09-16T09:44:53;7.00;;;1.08;;
43150;SDS011;28755;51.478;5.702;2022-09-16T09:47:35;5.38;;;0.82;;
43150;SDS011;28755;51.478;5.702;2022-09-16T09:50:28;4.10;;;0.90;;
43150;SDS011;28755;51.478;5.702;2022-09-16T09:55:39;7.43;;;1.00;;
43150;SDS011;28755;51.478;5.702;2022-09-16T10:01:10;4.40;;;1.13;;
43150;SDS011;28755;51.478;5.702;2022-09-16T10:03:35;5.60;;;1.50;;
43150;SDS011;28755;51.478;5.702;2022-09-16T10:06:03;4.18;;;0.80;;
43150;SDS011;28755;51.478;5.702;2022-09-16T10:11:13;4.15;;;0.80;;
43150;SDS011;28755;51.478;5.702;2022-09-16T10:13:54;3.83;;;0.47;;
43150;SDS011;28755;51.478;5.702;2022-09-16T10:16:28;3.47;;;0.47;;
43150;SDS011;28755;51.478;5.702;2022-09-16T10:19:01;0.57;;;0.30;;
43150;SDS011;28755;51.478;5.702;2022-09-16T10:21:36;2.95;;;0.98;;
43150;SDS011;28755;51.478;5.702;2022-09-16T10:24:28;2.17;;;0.65;;
43150;SDS011;28755;51.478;5.702;2022-09-16T10:27:14;2.70;;;0.50;;
43150;SDS011;28755;51.478;5.702;2022-09-16T10:29:46;6.63;;;0.68;;
43150;SDS011;28755;51.478;5.702;2022-09-16T10:32:17;2.63;;;0.40;;
43150;SDS011;28755;51.478;5.702;2022-09-16T10:34:43;2.53;;;0.52;;
43150;SDS011;28755;51.478;5.702;2022-09-16T10:39:42;4.40;;;0.90;;
43150;SDS011;28755;51.478;5.702;2022-09-16T10:42:17;7.13;;;1.42;;
43150;SDS011;28755;51.478;5.702;2022-09-16T10:44:45;3.58;;;0.88;;
43150;SDS011;28755;51.478;5.702;2022-09-16T10:47:16;2.95;;;0.80;;
43150;SDS011;28755;51.478;5.702;2022-09-16T10:49:45;6.47;;;1.15;;
43150;SDS011;28755;51.478;5.702;2022-09-16T10:52:15;4.20;;;0.80;;
43150;SDS011;28755;51.478;5.702;2022-09-16T10:54:41;3.67;;;0.70;;
43150;SDS011;28755;51.478;5.702;2022-09-16T10:57:18;4.07;;;0.70;;
43150;SDS011;28755;51.478;5.702;2022-09-16T10:59:54;3.42;;;0.80;;
43150;SDS011;28755;51.478;5.702;2022-09-16T11:08:32;5.38;;;1.02;;
43150;SDS011;28755;51.478;5.702;2022-09-16T11:16:51;6.47;;;1.10;;
43150;SDS011;28755;51.478;5.702;2022-09-16T11:22:25;5.05;;;0.70;;
43150;SDS011;28755;51.478;5.702;2022-09-16T11:31:06;4.07;;;0.82;;
43150;SDS011;28755;51.478;5.702;2022-09-16T11:34:00;5.53;;;0.80;;
43150;SDS011;28755;51.478;5.702;2022-09-16T11:39:16;3.10;;;0.98;;
43150;SDS011;28755;51.478;5.702;2022-09-16T11:44:34;3.92;;;0.98;;
43150;SDS011;28755;51.478;5.702;2022-09-16T11:52:55;4.35;;;0.77;;
43150;SDS011;28755;51.478;5.702;2022-09-16T11:55:52;2.78;;;0.90;;
43150;SDS011;28755;51.478;5.702;2022-09-16T11:58:29;3.00;;;0.82;;
43150;SDS011;28755;51.478;5.702;2022-09-16T12:01:12;2.85;;;0.90;;
43150;SDS011;28755;51.478;5.702;2022-09-16T12:03:59;6.88;;;1.25;;
43150;SDS011;28755;51.478;5.702;2022-09-16T12:06:28;3.95;;;0.70;;
43150;SDS011;28755;51.478;5.702;2022-09-16T12:09:08;8.05;;;1.25;;
43150;SDS011;28755;51.478;5.702;2022-09-16T12:11:47;7.50;;;2.13;;
43150;SDS011;28755;51.478;5.702;2022-09-16T12:14:22;5.60;;;1.10;;
43150;SDS011;28755;51.478;5.702;2022-09-16T12:16:53;4.38;;;1.17;;
43150;SDS011;28755;51.478;5.702;2022-09-16T12:19:28;8.68;;;1.85;;
43150;SDS011;28755;51.478;5.702;2022-09-16T12:22:20;17.23;;;2.72;;
43150;SDS011;28755;51.478;5.702;2022-09-16T12:27:48;5.60;;;1.00;;
43150;SDS011;28755;51.478;5.702;2022-09-16T12:30:24;6.47;;;1.40;;
43150;SDS011;28755;51.478;5.702;2022-09-16T12:35:37;1.95;;;0.60;;
43150;SDS011;28755;51.478;5.702;2022-09-16T12:38:24;5.38;;;0.77;;
43150;SDS011;28755;51.478;5.702;2022-09-16T12:41:39;3.45;;;0.60;;
43150;SDS011;28755;51.478;5.702;2022-09-16T12:51:54;3.33;;;0.70;;
43150;SDS011;28755;51.478;5.702;2022-09-16T12:57:19;3.75;;;1.20;;
43150;SDS011;28755;51.478;5.702;2022-09-16T13:00:11;3.75;;;1.00;;
43150;SDS011;28755;51.478;5.702;2022-09-16T13:02:46;7.28;;;0.80;;
43150;SDS011;28755;51.478;5.702;2022-09-16T13:07:55;4.53;;;0.70;;
43150;SDS011;28755;51.478;5.702;2022-09-16T13:10:29;4.20;;;1.35;;
43150;SDS011;28755;51.478;5.702;2022-09-16T13:13:04;4.43;;;1.60;;
43150;SDS011;28755;51.478;5.702;2022-09-16T13:15:35;2.63;;;0.85;;
43150;SDS011;28755;51.478;5.702;2022-09-16T13:20:41;2.67;;;0.68;;
43150;SDS011;28755;51.478;5.702;2022-09-16T13:23:21;5.35;;;1.13;;
43150;SDS011;28755;51.478;5.702;2022-09-16T13:26:06;3.88;;;0.80;;
43150;SDS011;28755;51.478;5.702;2022-09-16T13:28:34;6.80;;;0.75;;
43150;SDS011;28755;51.478;5.702;2022-09-16T13:33:41;9.85;;;1.00;;
43150;SDS011;28755;51.478;5.702;2022-09-16T13:38:38;7.32;;;1.30;;
43150;SDS011;28755;51.478;5.702;2022-09-16T13:41:27;3.13;;;1.02;;
43150;SDS011;28755;51.478;5.702;2022-09-16T13:44:01;4.78;;;1.00;;
43150;SDS011;28755;51.478;5.702;2022-09-16T13:46:48;3.05;;;0.98;;
43150;SDS011;28755;51.478;5.702;2022-09-16T13:49:15;4.43;;;0.80;;
43150;SDS011;28755;51.478;5.702;2022-09-16T13:51:50;2.55;;;0.68;;
43150;SDS011;28755;51.478;5.702;2022-09-16T13:57:09;3.95;;;0.90;;
43150;SDS011;28755;51.478;5.702;2022-09-16T14:00:00;2.53;;;0.70;;
43150;SDS011;28755;51.478;5.702;2022-09-16T14:05:47;4.10;;;0.65;;
43150;SDS011;28755;51.478;5.702;2022-09-16T14:11:32;2.90;;;0.73;;
43150;SDS011;28755;51.478;5.702;2022-09-16T14:14:13;3.35;;;0.70;;
43150;SDS011;28755;51.478;5.702;2022-09-16T14:16:44;3.65;;;0.77;;
43150;SDS011;28755;51.478;5.702;2022-09-16T14:19:22;5.35;;;0.90;;
43150;SDS011;28755;51.478;5.702;2022-09-16T14:24:40;6.03;;;1.07;;
43150;SDS011;28755;51.478;5.702;2022-09-16T14:27:17;3.72;;;0.95;;
43150;SDS011;28755;51.478;5.702;2022-09-16T14:29:56;4.75;;;1.02;;
43150;SDS011;28755;51.478;5.702;2022-09-16T14:32:30;8.15;;;1.13;;
43150;SDS011;28755;51.478;5.702;2022-09-16T14:35:00;5.93;;;1.30;;
43150;SDS011;28755;51.478;5.702;2022-09-16T14:37:32;6.45;;;1.20;;
43150;SDS011;28755;51.478;5.702;2022-09-16T14:40:03;4.82;;;1.13;;
43150;SDS011;28755;51.478;5.702;2022-09-16T14:42:31;5.30;;;1.40;;
43150;SDS011;28755;51.478;5.702;2022-09-16T14:44:57;6.65;;;1.10;;
43150;SDS011;28755;51.478;5.702;2022-09-16T14:47:28;4.20;;;0.70;;
43150;SDS011;28755;51.478;5.702;2022-09-16T14:50:00;6.88;;;1.20;;
43150;SDS011;28755;51.478;5.702;2022-09-16T14:52:39;6.90;;;1.23;;
43150;SDS011;28755;51.478;5.702;2022-09-16T14:55:18;5.72;;;1.10;;
43150;SDS011;28755;51.478;5.702;2022-09-16T14:57:45;7.40;;;1.23;;
43150;SDS011;28755;51.478;5.702;2022-09-16T15:00:12;9.68;;;1.88;;
43150;SDS011;28755;51.478;5.702;2022-09-16T15:05:32;7.53;;;1.15;;
43150;SDS011;28755;51.478;5.702;2022-09-16T15:08:07;6.65;;;1.30;;
43150;SDS011;28755;51.478;5.702;2022-09-16T15:10:34;4.45;;;1.20;;
43150;SDS011;28755;51.478;5.702;2022-09-16T15:13:04;6.63;;;1.40;;
43150;SDS011;28755;51.478;5.702;2022-09-16T15:15:36;6.38;;;1.00;;
43150;SDS011;28755;51.478;5.702;2022-09-16T15:18:11;5.13;;;1.60;;
43150;SDS011;28755;51.478;5.702;2022-09-16T15:21:00;5.50;;;1.13;;
43150;SDS011;28755;51.478;5.702;2022-09-16T15:23:28;7.97;;;1.10;;
43150;SDS011;28755;51.478;5.702;2022-09-16T15:25:56;8.68;;;1.00;;
43150;SDS011;28755;51.478;5.702;2022-09-16T15:28:36;6.60;;;1.48;;
43150;SDS011;28755;51.478;5.702;2022-09-16T15:31:01;5.90;;;1.00;;
43150;SDS011;28755;51.478;5.702;2022-09-16T15:33:39;5.70;;;1.20;;
43150;SDS011;28755;51.478;5.702;2022-09-16T15:36:06;7.55;;;1.20;;
43150;SDS011;28755;51.478;5.702;2022-09-16T15:38:56;6.82;;;1.67;;
43150;SDS011;28755;51.478;5.702;2022-09-16T15:41:21;4.60;;;0.80;;
43150;SDS011;28755;51.478;5.702;2022-09-16T15:43:47;5.50;;;1.30;;
43150;SDS011;28755;51.478;5.702;2022-09-16T15:46:14;3.50;;;1.10;;
43150;SDS011;28755;51.478;5.702;2022-09-16T15:54:15;5.65;;;1.20;;
43150;SDS011;28755;51.478;5.702;2022-09-16T15:59:33;6.65;;;2.08;;
43150;SDS011;28755;51.478;5.702;2022-09-16T16:05:19;6.00;;;1.20;;
43150;SDS011;28755;51.478;5.702;2022-09-16T16:08:00;6.82;;;1.30;;
43150;SDS011;28755;51.478;5.702;2022-09-16T16:10:29;5.95;;;1.23;;
43150;SDS011;28755;51.478;5.702;2022-09-16T16:12:56;8.10;;;1.45;;
43150;SDS011;28755;51.478;5.702;2022-09-16T16:15:24;7.05;;;1.58;;
43150;SDS011;28755;51.478;5.702;2022-09-16T16:17:52;5.97;;;1.27;;
43150;SDS011;28755;51.478;5.702;2022-09-16T16:20:22;9.85;;;1.30;;
43150;SDS011;28755;51.478;5.702;2022-09-16T16:22:48;8.75;;;1.40;;
43150;SDS011;28755;51.478;5.702;2022-09-16T16:25:14;5.05;;;1.48;;
43150;SDS011;28755;51.478;5.702;2022-09-16T16:27:40;7.43;;;1.48;;
43150;SDS011;28755;51.478;5.702;2022-09-16T16:30:06;16.15;;;1.60;;
43150;SDS011;28755;51.478;5.702;2022-09-16T16:32:32;8.55;;;1.25;;
43150;SDS011;28755;51.478;5.702;2022-09-16T16:34:59;7.00;;;1.33;;
43150;SDS011;28755;51.478;5.702;2022-09-16T16:37:25;7.82;;;1.30;;
43150;SDS011;28755;51.478;5.702;2022-09-16T16:39:51;6.25;;;1.27;;
43150;SDS011;28755;51.478;5.702;2022-09-16T16:42:17;5.30;;;1.00;;
43150;SDS011;28755;51.478;5.702;2022-09-16T16:44:43;6.72;;;1.40;;
43150;SDS011;28755;51.478;5.702;2022-09-16T16:47:09;12.60;;;1.75;;
43150;SDS011;28755;51.478;5.702;2022-09-16T16:49:35;8.80;;;1.58;;
43150;SDS011;28755;51.478;5.702;2022-09-16T16:52:02;9.55;;;1.60;;
43150;SDS011;28755;51.478;5.702;2022-09-16T16:54:29;11.05;;;1.40;;
43150;SDS011;28755;51.478;5.702;2022-09-16T16:56:55;6.22;;;0.80;;
43150;SDS011;28755;51.478;5.702;2022-09-16T16:59:22;9.43;;;1.13;;
43150;SDS011;28755;51.478;5.702;2022-09-16T17:01:52;4.25;;;1.08;;
43150;SDS011;28755;51.478;5.702;2022-09-16T17:04:19;9.70;;;1.42;;
43150;SDS011;28755;51.478;5.702;2022-09-16T17:06:45;8.27;;;1.60;;
43150;SDS011;28755;51.478;5.702;2022-09-16T17:09:11;11.38;;;1.67;;
43150;SDS011;28755;51.478;5.702;2022-09-16T17:11:48;11.30;;;1.92;;
43150;SDS011;28755;51.478;5.702;2022-09-16T17:14:16;7.32;;;1.38;;
43150;SDS011;28755;51.478;5.702;2022-09-16T17:16:41;10.07;;;1.77;;
43150;SDS011;28755;51.478;5.702;2022-09-16T17:19:10;15.80;;;1.95;;
43150;SDS011;28755;51.478;5.702;2022-09-16T17:21:36;6.68;;;1.35;;
43150;SDS011;28755;51.478;5.702;2022-09-16T17:24:03;9.52;;;1.40;;
43150;SDS011;28755;51.478;5.702;2022-09-16T17:26:29;8.95;;;1.60;;
43150;SDS011;28755;51.478;5.702;2022-09-16T17:28:54;4.65;;;1.35;;
43150;SDS011;28755;51.478;5.702;2022-09-16T17:31:26;8.60;;;1.05;;
43150;SDS011;28755;51.478;5.702;2022-09-16T17:33:54;4.95;;;1.50;;
43150;SDS011;28755;51.478;5.702;2022-09-16T17:36:21;7.72;;;1.50;;
43150;SDS011;28755;51.478;5.702;2022-09-16T17:38:53;10.18;;;1.40;;
43150;SDS011;28755;51.478;5.702;2022-09-16T17:41:20;7.82;;;1.75;;
43150;SDS011;28755;51.478;5.702;2022-09-16T17:43:46;6.88;;;1.35;;
43150;SDS011;28755;51.478;5.702;2022-09-16T17:46:14;11.15;;;1.25;;
43150;SDS011;28755;51.478;5.702;2022-09-16T17:48:42;6.75;;;1.38;;
43150;SDS011;28755;51.478;5.702;2022-09-16T17:51:08;4.55;;;0.98;;
43150;SDS011;28755;51.478;5.702;2022-09-16T17:53:34;12.93;;;1.52;;
43150;SDS011;28755;51.478;5.702;2022-09-16T17:56:08;5.03;;;1.30;;